sensor_id;sensor_type;location;lat;lon;timestamp;pressure;altitude;pressure_sealevel;temperature;humidity
4143;BME280;2085;51.052;6.958;2022-09-16T00:02:14;100705.41;;;13.81;71.77
4143;BME280;2085;51.052;6.958;2022-09-16T00:04:40;100705.22;;;13.84;71.97
4143;BME280;2085;51.052;6.958;2022-09-16T00:07:07;100703.31;;;13.86;71.96
4143;BME280;2085;51.052;6.958;2022-09-16T00:09:35;100704.19;;;13.87;71.84
4143;BME280;2085;51.052;6.958;2022-09-16T00:12:02;100709.28;;;13.90;71.69
4143;BME280;2085;51.052;6.958;2022-09-16T00:14:30;100697.75;;;13.91;71.91
4143;BME280;2085;51.052;6.958;2022-09-16T00:16:57;100695.84;;;13.93;71.94
4143;BME280;2085;51.052;6.958;2022-09-16T00:19:23;100689.59;;;13.94;71.73
4143;BME280;2085;51.052;6.958;2022-09-16T00:21:50;100683.44;;;13.93;71.57
4143;BME280;2085;51.052;6.958;2022-09-16T00:24:16;100699.53;;;13.90;71.53
4143;BME280;2085;51.052;6.958;2022-09-16T00:26:43;100691.91;;;13.85;71.31
4143;BME280;2085;51.052;6.958;2022-09-16T00:29:09;100683.31;;;13.82;71.54
4143;BME280;2085;51.052;6.958;2022-09-16T00:31:37;100690.56;;;13.78;71.54
4143;BME280;2085;51.052;6.958;2022-09-16T00:34:04;100692.56;;;13.75;71.70
4143;BME280;2085;51.052;6.958;2022-09-16T00:36:31;100690.97;;;13.72;71.70
4143;BME280;2085;51.052;6.958;2022-09-16T00:38:57;100703.44;;;13.70;71.72
4143;BME280;2085;51.052;6.958;2022-09-16T00:41:26;100700.06;;;13.68;71.80
4143;BME280;2085;51.052;6.958;2022-09-16T00:43:57;100706.28;;;13.67;71.66
4143;BME280;2085;51.052;6.958;2022-09-16T00:46:33;100701.06;;;13.66;71.69
4143;BME280;2085;51.052;6.958;2022-09-16T00:49:05;100701.19;;;13.64;71.63
4143;BME280;2085;51.052;6.958;2022-09-16T00:51:35;100697.78;;;13.62;71.63
4143;BME280;2085;51.052;6.958;2022-09-16T00:54:03;100705.91;;;13.59;71.70
4143;BME280;2085;51.052;6.958;2022-09-16T00:56:35;100701.00;;;13.53;71.85
4143;BME280;2085;51.052;6.958;2022-09-16T00:59:05;100703.94;;;13.49;71.74
4143;BME280;2085;51.052;6.958;2022-09-16T01:01:33;100701.78;;;13.41;71.67
4143;BME280;2085;51.052;6.958;2022-09-16T01:04:05;100704.78;;;13.35;71.74
4143;BME280;2085;51.052;6.958;2022-09-16T01:06:36;100707.78;;;13.29;71.59
4143;BME280;2085;51.052;6.958;2022-09-16T01:09:04;100708.19;;;13.23;71.98
4143;BME280;2085;51.052;6.958;2022-09-16T01:11:31;100701.38;;;13.19;71.82
4143;BME280;2085;51.052;6.958;2022-09-16T01:13:58;100706.94;;;13.14;71.92
4143;BME280;2085;51.052;6.958;2022-09-16T01:16:49;100711.72;;;13.08;71.92
4143;BME280;2085;51.052;6.958;2022-09-16T01:19:36;100707.56;;;13.04;72.11
4143;BME280;2085;51.052;6.958;2022-09-16T01:22:16;100713.03;;;13.01;72.31
4143;BME280;2085;51.052;6.958;2022-09-16T01:24:52;100713.91;;;13.01;72.32
4143;BME280;2085;51.052;6.958;2022-09-16T01:27:31;100713.91;;;13.01;72.32
4143;BME280;2085;51.052;6.958;2022-09-16T01:30:17;100714.72;;;13.02;72.36
4143;BME280;2085;51.052;6.958;2022-09-16T01:32:53;100708.31;;;13.06;72.35
4143;BME280;2085;51.052;6.958;2022-09-16T01:35:31;100712.66;;;13.07;72.32
4143;BME280;2085;51.052;6.958;2022-09-16T01:38:08;100701.91;;;13.10;72.33
4143;BME280;2085;51.052;6.958;2022-09-16T01:40:41;100702.59;;;13.13;72.43
4143;BME280;2085;51.052;6.958;2022-09-16T01:43:16;100692.69;;;13.17;72.55
4143;BME280;2085;51.052;6.958;2022-09-16T01:45:49;100698.63;;;13.20;72.32
4143;BME280;2085;51.052;6.958;2022-09-16T01:48:22;100699.19;;;13.25;72.56
4143;BME280;2085;51.052;6.958;2022-09-16T01:50:58;100693.84;;;13.27;72.58
4143;BME280;2085;51.052;6.958;2022-09-16T01:53:32;100692.78;;;13.29;72.35
4143;BME280;2085;51.052;6.958;2022-09-16T01:56:05;100697.91;;;13.32;72.33
4143;BME280;2085;51.052;6.958;2022-09-16T01:58:37;100685.41;;;13.34;72.57
4143;BME280;2085;51.052;6.958;2022-09-16T02:01:08;100690.63;;;13.36;72.47
4143;BME280;2085;51.052;6.958;2022-09-16T02:03:39;100690.50;;;13.37;72.39
4143;BME280;2085;51.052;6.958;2022-09-16T02:06:07;100686.94;;;13.38;72.55
4143;BME280;2085;51.052;6.958;2022-09-16T02:08:37;100689.50;;;13.40;72.29
4143;BME280;2085;51.052;6.958;2022-09-16T02:11:07;100689.50;;;13.40;72.28
4143;BME280;2085;51.052;6.958;2022-09-16T02:13:38;100690.34;;;13.40;72.39
4143;BME280;2085;51.052;6.958;2022-09-16T02:16:10;100691.19;;;13.41;72.57
4143;BME280;2085;51.052;6.958;2022-09-16T02:18:42;100684.19;;;13.40;72.48
4143;BME280;2085;51.052;6.958;2022-09-16T02:21:15;100691.19;;;13.41;72.63
4143;BME280;2085;51.052;6.958;2022-09-16T02:23:46;100685.91;;;13.41;72.63
4143;BME280;2085;51.052;6.958;2022-09-16T02:26:18;100680.63;;;13.41;72.51
4143;BME280;2085;51.052;6.958;2022-09-16T02:28:47;100686.00;;;13.39;72.59
4143;BME280;2085;51.052;6.958;2022-09-16T02:31:18;100680.78;;;13.38;72.41
4143;BME280;2085;51.052;6.958;2022-09-16T02:33:53;100691.47;;;13.36;72.52
4143;BME280;2085;51.052;6.958;2022-09-16T02:36:22;100684.47;;;13.35;72.50
4143;BME280;2085;51.052;6.958;2022-09-16T02:38:54;100683.63;;;13.35;72.76
4143;BME280;2085;51.052;6.958;2022-09-16T02:41:21;100691.56;;;13.35;72.41
4143;BME280;2085;51.052;6.958;2022-09-16T02:43:48;100682.50;;;13.39;72.72
4143;BME280;2085;51.052;6.958;2022-09-16T02:46:21;100675.34;;;13.41;72.87
4143;BME280;2085;51.052;6.958;2022-09-16T02:48:57;100685.72;;;13.44;72.60
4143;BME280;2085;51.052;6.958;2022-09-16T02:51:33;100674.94;;;13.47;72.79
4143;BME280;2085;51.052;6.958;2022-09-16T02:54:08;100680.03;;;13.50;72.46
4143;BME280;2085;51.052;6.958;2022-09-16T02:56:38;100672.84;;;13.52;72.83
4143;BME280;2085;51.052;6.958;2022-09-16T02:59:07;100676.25;;;13.54;72.82
4143;BME280;2085;51.052;6.958;2022-09-16T03:01:37;100664.84;;;13.54;72.62
4143;BME280;2085;51.052;6.958;2022-09-16T03:04:07;100675.31;;;13.55;72.65
4143;BME280;2085;51.052;6.958;2022-09-16T03:06:33;100677.13;;;13.55;72.74
4143;BME280;2085;51.052;6.958;2022-09-16T03:09:03;100672.84;;;13.52;72.51
4143;BME280;2085;51.052;6.958;2022-09-16T03:11:52;100664.19;;;13.50;72.69
4143;BME280;2085;51.052;6.958;2022-09-16T03:14:46;100664.19;;;13.50;72.57
4143;BME280;2085;51.052;6.958;2022-09-16T03:17:27;100656.34;;;13.49;72.77
4143;BME280;2085;51.052;6.958;2022-09-16T03:20:03;100660.75;;;13.48;72.70
4143;BME280;2085;51.052;6.958;2022-09-16T03:22:44;100647.63;;;13.47;72.82
4143;BME280;2085;51.052;6.958;2022-09-16T03:25:25;100649.44;;;13.46;73.01
4143;BME280;2085;51.052;6.958;2022-09-16T03:27:59;100654.91;;;13.43;73.08
4143;BME280;2085;51.052;6.958;2022-09-16T03:30:30;100655.78;;;13.44;72.75
4143;BME280;2085;51.052;6.958;2022-09-16T03:33:01;100655.84;;;13.42;72.83
4143;BME280;2085;51.052;6.958;2022-09-16T03:35:33;100663.03;;;13.40;72.65
4143;BME280;2085;51.052;6.958;2022-09-16T03:38:05;100662.41;;;13.36;72.77
4143;BME280;2085;51.052;6.958;2022-09-16T03:40:32;100660.88;;;13.32;72.60
4143;BME280;2085;51.052;6.958;2022-09-16T03:42:59;100661.25;;;13.26;72.84
4143;BME280;2085;51.052;6.958;2022-09-16T03:45:26;100661.63;;;13.20;72.57
4143;BME280;2085;51.052;6.958;2022-09-16T03:47:52;100658.41;;;13.15;72.69
4143;BME280;2085;51.052;6.958;2022-09-16T03:50:19;100659.63;;;13.10;72.73
4143;BME280;2085;51.052;6.958;2022-09-16T03:52:47;100657.25;;;13.05;72.58
4143;BME280;2085;51.052;6.958;2022-09-16T03:55:15;100654.91;;;13.01;72.69
4143;BME280;2085;51.052;6.958;2022-09-16T03:57:42;100655.06;;;12.97;72.86
4143;BME280;2085;51.052;6.958;2022-09-16T04:00:10;100654.41;;;12.94;72.91
4143;BME280;2085;51.052;6.958;2022-09-16T04:02:37;100649.31;;;12.91;72.77
4143;BME280;2085;51.052;6.958;2022-09-16T04:05:04;100653.84;;;12.89;73.06
4143;BME280;2085;51.052;6.958;2022-09-16T04:07:31;100648.81;;;12.84;72.92
4143;BME280;2085;51.052;6.958;2022-09-16T04:09:59;100652.59;;;12.80;72.74
4143;BME280;2085;51.052;6.958;2022-09-16T04:12:26;100648.38;;;12.78;73.08
4143;BME280;2085;51.052;6.958;2022-09-16T04:14:52;100652.78;;;12.77;72.98
4143;BME280;2085;51.052;6.958;2022-09-16T04:17:19;100644.75;;;12.79;73.32
4143;BME280;2085;51.052;6.958;2022-09-16T04:19:45;100648.09;;;12.82;73.37
4143;BME280;2085;51.052;6.958;2022-09-16T04:22:12;100642.53;;;12.87;73.42
4143;BME280;2085;51.052;6.958;2022-09-16T04:24:38;100632.53;;;12.92;73.41
4143;BME280;2085;51.052;6.958;2022-09-16T04:27:06;100639.22;;;12.97;73.26
4143;BME280;2085;51.052;6.958;2022-09-16T04:29:33;100645.06;;;13.03;73.46
4143;BME280;2085;51.052;6.958;2022-09-16T04:32:00;100645.84;;;13.05;73.13
4143;BME280;2085;51.052;6.958;2022-09-16T04:34:26;100644.91;;;13.06;73.35
4143;BME280;2085;51.052;6.958;2022-09-16T04:36:53;100637.81;;;13.06;73.04
4143;BME280;2085;51.052;6.958;2022-09-16T04:39:19;100640.34;;;13.08;73.12
4143;BME280;2085;51.052;6.958;2022-09-16T04:41:46;100643.78;;;13.10;73.23
4143;BME280;2085;51.052;6.958;2022-09-16T04:44:14;100639.25;;;13.12;73.15
4143;BME280;2085;51.052;6.958;2022-09-16T04:46:40;100645.31;;;13.14;73.27
4143;BME280;2085;51.052;6.958;2022-09-16T04:49:07;100637.28;;;13.15;73.12
4143;BME280;2085;51.052;6.958;2022-09-16T04:51:33;100644.19;;;13.18;73.14
4143;BME280;2085;51.052;6.958;2022-09-16T04:54:00;100655.59;;;13.18;73.16
4143;BME280;2085;51.052;6.958;2022-09-16T04:56:29;100644.06;;;13.19;73.06
4143;BME280;2085;51.052;6.958;2022-09-16T04:58:58;100644.91;;;13.20;73.10
4143;BME280;2085;51.052;6.958;2022-09-16T05:01:29;100639.63;;;13.20;73.11
4143;BME280;2085;51.052;6.958;2022-09-16T05:03:58;100646.06;;;13.16;73.11
4143;BME280;2085;51.052;6.958;2022-09-16T05:06:26;100644.38;;;13.15;73.13
4143;BME280;2085;51.052;6.958;2022-09-16T05:08:54;100647.19;;;13.12;73.25
4143;BME280;2085;51.052;6.958;2022-09-16T05:11:22;100642.84;;;13.11;73.09
4143;BME280;2085;51.052;6.958;2022-09-16T05:13:49;100647.28;;;13.10;73.32
4143;BME280;2085;51.052;6.958;2022-09-16T05:16:17;100643.78;;;13.10;73.14
4143;BME280;2085;51.052;6.958;2022-09-16T05:18:47;100643.69;;;13.11;73.44
4143;BME280;2085;51.052;6.958;2022-09-16T05:21:17;100645.41;;;13.12;73.43
4143;BME280;2085;51.052;6.958;2022-09-16T05:23:44;100647.09;;;13.13;73.24
4143;BME280;2085;51.052;6.958;2022-09-16T05:26:12;100646.06;;;13.16;73.32
4143;BME280;2085;51.052;6.958;2022-09-16T05:28:40;100649.53;;;13.16;73.40
4143;BME280;2085;51.052;6.958;2022-09-16T05:31:08;100652.97;;;13.18;73.38
4143;BME280;2085;51.052;6.958;2022-09-16T05:33:35;100648.53;;;13.19;73.39
4143;BME280;2085;51.052;6.958;2022-09-16T05:36:08;100656.25;;;13.22;73.34
4143;BME280;2085;51.052;6.958;2022-09-16T05:38:35;100658.69;;;13.25;73.43
4143;BME280;2085;51.052;6.958;2022-09-16T05:41:03;100654.19;;;13.27;73.41
4143;BME280;2085;51.052;6.958;2022-09-16T05:43:30;100661.19;;;13.28;73.39
4143;BME280;2085;51.052;6.958;2022-09-16T05:45:58;100654.91;;;13.29;73.35
4143;BME280;2085;51.052;6.958;2022-09-16T05:48:26;100653.03;;;13.31;73.29
4143;BME280;2085;51.052;6.958;2022-09-16T05:50:54;100660.78;;;13.34;73.47
4143;BME280;2085;51.052;6.958;2022-09-16T05:53:22;100658.03;;;13.35;73.28
4143;BME280;2085;51.052;6.958;2022-09-16T05:55:56;100665.78;;;13.38;73.17
4143;BME280;2085;51.052;6.958;2022-09-16T05:58:24;100662.09;;;13.41;73.26
4143;BME280;2085;51.052;6.958;2022-09-16T06:00:51;100661.13;;;13.42;73.45
4143;BME280;2085;51.052;6.958;2022-09-16T06:03:17;100657.38;;;13.46;73.38
4143;BME280;2085;51.052;6.958;2022-09-16T06:05:44;100651.69;;;13.52;73.29
4143;BME280;2085;51.052;6.958;2022-09-16T06:08:10;100655.47;;;13.62;73.27
4143;BME280;2085;51.052;6.958;2022-09-16T06:10:39;100648.72;;;13.71;73.23
4143;BME280;2085;51.052;6.958;2022-09-16T06:13:06;100656.16;;;13.78;73.10
4143;BME280;2085;51.052;6.958;2022-09-16T06:15:33;100650.41;;;13.86;73.05
4143;BME280;2085;51.052;6.958;2022-09-16T06:18:00;100652.75;;;13.91;72.90
4143;BME280;2085;51.052;6.958;2022-09-16T06:20:26;100650.84;;;13.93;72.88
4143;BME280;2085;51.052;6.958;2022-09-16T06:22:53;100650.66;;;13.96;72.97
4143;BME280;2085;51.052;6.958;2022-09-16T06:25:19;100655.09;;;13.95;72.79
4143;BME280;2085;51.052;6.958;2022-09-16T06:27:47;100659.56;;;13.95;72.94
4143;BME280;2085;51.052;6.958;2022-09-16T06:30:14;100660.41;;;13.95;73.00
4143;BME280;2085;51.052;6.958;2022-09-16T06:32:40;100657.84;;;13.94;72.81
4143;BME280;2085;51.052;6.958;2022-09-16T06:35:07;100659.63;;;13.93;73.11
4143;BME280;2085;51.052;6.958;2022-09-16T06:37:34;100662.19;;;13.95;73.02
4143;BME280;2085;51.052;6.958;2022-09-16T06:40:01;100659.56;;;13.95;73.15
4143;BME280;2085;51.052;6.958;2022-09-16T06:42:27;100655.75;;;13.99;73.27
4143;BME280;2085;51.052;6.958;2022-09-16T06:44:55;100654.69;;;14.01;73.01
4143;BME280;2085;51.052;6.958;2022-09-16T06:47:22;100653.44;;;14.07;72.94
4143;BME280;2085;51.052;6.958;2022-09-16T06:49:49;100656.72;;;14.10;73.08
4143;BME280;2085;51.052;6.958;2022-09-16T06:52:15;100654.72;;;14.14;73.14
4143;BME280;2085;51.052;6.958;2022-09-16T06:54:42;100656.25;;;14.18;73.25
4143;BME280;2085;51.052;6.958;2022-09-16T06:57:08;100664.84;;;14.21;73.10
4143;BME280;2085;51.052;6.958;2022-09-16T06:59:35;100665.56;;;14.23;72.99
4143;BME280;2085;51.052;6.958;2022-09-16T07:02:03;100653.19;;;14.24;72.87
4143;BME280;2085;51.052;6.958;2022-09-16T07:04:29;100667.06;;;14.27;72.81
4143;BME280;2085;51.052;6.958;2022-09-16T07:06:56;100659.03;;;14.29;72.97
4143;BME280;2085;51.052;6.958;2022-09-16T07:09:23;100665.25;;;14.28;72.67
4143;BME280;2085;51.052;6.958;2022-09-16T07:11:49;100668.13;;;14.25;72.71
4143;BME280;2085;51.052;6.958;2022-09-16T07:14:16;100661.13;;;14.24;73.01
4143;BME280;2085;51.052;6.958;2022-09-16T07:16:42;100668.34;;;14.22;72.81
4143;BME280;2085;51.052;6.958;2022-09-16T07:19:11;100663.91;;;14.22;72.92
4143;BME280;2085;51.052;6.958;2022-09-16T07:21:37;100660.19;;;14.25;72.92
4143;BME280;2085;51.052;6.958;2022-09-16T07:24:05;100659.03;;;14.29;72.94
4143;BME280;2085;51.052;6.958;2022-09-16T07:26:33;100674.91;;;14.29;72.73
4143;BME280;2085;51.052;6.958;2022-09-16T07:29:04;100671.31;;;14.30;72.83
4143;BME280;2085;51.052;6.958;2022-09-16T07:31:33;100677.25;;;14.34;72.85
4143;BME280;2085;51.052;6.958;2022-09-16T07:34:01;100674.53;;;14.35;72.68
4143;BME280;2085;51.052;6.958;2022-09-16T07:36:31;100674.59;;;14.34;72.71
4143;BME280;2085;51.052;6.958;2022-09-16T07:38:58;100670.16;;;14.34;72.68
4143;BME280;2085;51.052;6.958;2022-09-16T07:41:26;100679.81;;;14.35;73.08
4143;BME280;2085;51.052;6.958;2022-09-16T07:43:55;100681.56;;;14.36;72.88
4143;BME280;2085;51.052;6.958;2022-09-16T07:46:24;100681.34;;;14.39;72.93
4143;BME280;2085;51.052;6.958;2022-09-16T07:48:52;100690.69;;;14.45;72.72
4143;BME280;2085;51.052;6.958;2022-09-16T07:51:20;100689.53;;;14.49;72.80
4143;BME280;2085;51.052;6.958;2022-09-16T07:53:52;100691.56;;;14.58;72.93
4143;BME280;2085;51.052;6.958;2022-09-16T07:56:21;100689.16;;;14.67;72.95
4143;BME280;2085;51.052;6.958;2022-09-16T07:58:50;100690.44;;;14.74;72.90
4143;BME280;2085;51.052;6.958;2022-09-16T08:01:17;100704.00;;;14.83;72.76
4143;BME280;2085;51.052;6.958;2022-09-16T08:03:44;100700.94;;;14.89;72.46
4143;BME280;2085;51.052;6.958;2022-09-16T08:06:13;100701.03;;;14.87;72.36
4143;BME280;2085;51.052;6.958;2022-09-16T08:08:40;100697.13;;;14.80;72.06
4143;BME280;2085;51.052;6.958;2022-09-16T08:11:08;100697.84;;;14.69;72.19
4143;BME280;2085;51.052;6.958;2022-09-16T08:13:37;100694.31;;;14.56;72.14
4143;BME280;2085;51.052;6.958;2022-09-16T08:16:06;100697.16;;;14.53;72.56
4143;BME280;2085;51.052;6.958;2022-09-16T08:18:33;100699.38;;;14.59;72.50
4143;BME280;2085;51.052;6.958;2022-09-16T08:21:04;100704.28;;;14.65;72.55
4143;BME280;2085;51.052;6.958;2022-09-16T08:23:31;100709.75;;;14.77;72.36
4143;BME280;2085;51.052;6.958;2022-09-16T08:25:59;100698.53;;;14.98;72.51
4143;BME280;2085;51.052;6.958;2022-09-16T08:28:27;100706.56;;;15.22;72.69
4143;BME280;2085;51.052;6.958;2022-09-16T08:30:57;100709.44;;;15.44;72.54
4143;BME280;2085;51.052;6.958;2022-09-16T08:33:24;100711.03;;;15.59;72.17
4143;BME280;2085;51.052;6.958;2022-09-16T08:35:57;100714.22;;;15.65;71.73
4143;BME280;2085;51.052;6.958;2022-09-16T08:38:24;100707.09;;;15.65;71.59
4143;BME280;2085;51.052;6.958;2022-09-16T08:40:53;100708.06;;;15.64;71.69
4143;BME280;2085;51.052;6.958;2022-09-16T08:43:28;100717.50;;;15.68;71.79
4143;BME280;2085;51.052;6.958;2022-09-16T08:46:03;100712.63;;;15.75;71.47
4143;BME280;2085;51.052;6.958;2022-09-16T08:48:41;100706.56;;;15.73;71.69
4143;BME280;2085;51.052;6.958;2022-09-16T08:51:15;100719.63;;;15.76;71.35
4143;BME280;2085;51.052;6.958;2022-09-16T08:53:46;100710.59;;;15.78;71.52
4143;BME280;2085;51.052;6.958;2022-09-16T08:56:16;100707.38;;;15.86;71.62
4143;BME280;2085;51.052;6.958;2022-09-16T08:58:47;100706.69;;;15.95;71.54
4143;BME280;2085;51.052;6.958;2022-09-16T09:01:19;100703.63;;;16.01;71.49
4143;BME280;2085;51.052;6.958;2022-09-16T09:03:47;100709.44;;;16.06;71.32
4143;BME280;2085;51.052;6.958;2022-09-16T09:06:22;100715.03;;;16.14;71.16
4143;BME280;2085;51.052;6.958;2022-09-16T09:09:02;100708.31;;;16.21;71.36
4143;BME280;2085;51.052;6.958;2022-09-16T09:11:34;100708.13;;;16.35;71.45
4143;BME280;2085;51.052;6.958;2022-09-16T09:14:26;100710.59;;;16.62;71.64
4143;BME280;2085;51.052;6.958;2022-09-16T09:17:03;100716.22;;;16.81;71.34
4143;BME280;2085;51.052;6.958;2022-09-16T09:19:42;100707.44;;;16.92;71.13
4143;BME280;2085;51.052;6.958;2022-09-16T09:22:20;100712.50;;;16.95;70.89
4143;BME280;2085;51.052;6.958;2022-09-16T09:25:03;100702.84;;;16.94;70.85
4143;BME280;2085;51.052;6.958;2022-09-16T09:27:38;100708.28;;;16.92;70.73
4143;BME280;2085;51.052;6.958;2022-09-16T09:30:14;100699.41;;;16.81;70.52
4143;BME280;2085;51.052;6.958;2022-09-16T09:32:57;100706.72;;;16.66;70.51
4143;BME280;2085;51.052;6.958;2022-09-16T09:35:37;100706.75;;;16.42;70.33
4143;BME280;2085;51.052;6.958;2022-09-16T09:38:29;100703.84;;;16.22;70.50
4143;BME280;2085;51.052;6.958;2022-09-16T09:40:59;100699.53;;;16.08;70.78
4143;BME280;2085;51.052;6.958;2022-09-16T09:43:32;100704.56;;;16.00;70.78
4143;BME280;2085;51.052;6.958;2022-09-16T09:46:05;100699.25;;;16.00;71.17
4143;BME280;2085;51.052;6.958;2022-09-16T09:48:36;100700.72;;;16.04;71.05
4143;BME280;2085;51.052;6.958;2022-09-16T09:51:10;100701.25;;;16.09;70.62
4143;BME280;2085;51.052;6.958;2022-09-16T09:53:44;100700.38;;;16.08;70.76
4143;BME280;2085;51.052;6.958;2022-09-16T09:56:18;100699.78;;;16.05;70.60
4143;BME280;2085;51.052;6.958;2022-09-16T09:58:53;100700.63;;;16.05;70.58
4143;BME280;2085;51.052;6.958;2022-09-16T10:01:25;100701.81;;;16.01;70.57
4143;BME280;2085;51.052;6.958;2022-09-16T10:03:52;100697.78;;;15.96;70.23
4143;BME280;2085;51.052;6.958;2022-09-16T10:06:24;100706.41;;;15.87;70.44
4143;BME280;2085;51.052;6.958;2022-09-16T10:08:54;100692.09;;;15.77;70.36
4143;BME280;2085;51.052;6.958;2022-09-16T10:11:23;100696.88;;;15.72;70.52
4143;BME280;2085;51.052;6.958;2022-09-16T10:13:51;100687.31;;;15.82;70.49
4143;BME280;2085;51.052;6.958;2022-09-16T10:16:20;100693.09;;;15.99;70.34
4143;BME280;2085;51.052;6.958;2022-09-16T10:18:55;100689.16;;;16.05;69.66
4143;BME280;2085;51.052;6.958;2022-09-16T10:21:24;100685.66;;;16.04;69.53
4143;BME280;2085;51.052;6.958;2022-09-16T10:23:55;100684.78;;;16.04;69.74
4143;BME280;2085;51.052;6.958;2022-09-16T10:26:24;100678.09;;;16.11;69.85
4143;BME280;2085;51.052;6.958;2022-09-16T10:28:56;100682.66;;;16.33;70.29
4143;BME280;2085;51.052;6.958;2022-09-16T10:31:25;100680.03;;;16.68;70.37
4143;BME280;2085;51.052;6.958;2022-09-16T10:33:54;100677.59;;;17.00;69.87
4143;BME280;2085;51.052;6.958;2022-09-16T10:36:22;100681.00;;;17.13;69.78
4143;BME280;2085;51.052;6.958;2022-09-16T10:38:53;100676.88;;;17.09;69.22
4143;BME280;2085;51.052;6.958;2022-09-16T10:41:23;100674.31;;;16.96;69.31
4143;BME280;2085;51.052;6.958;2022-09-16T10:43:52;100685.16;;;16.82;68.94
4143;BME280;2085;51.052;6.958;2022-09-16T10:46:20;100680.28;;;16.65;68.93
4143;BME280;2085;51.052;6.958;2022-09-16T10:48:47;100682.50;;;16.47;68.95
4143;BME280;2085;51.052;6.958;2022-09-16T10:51:23;100675.91;;;16.40;69.65
4143;BME280;2085;51.052;6.958;2022-09-16T10:53:52;100669.91;;;16.49;69.56
4143;BME280;2085;51.052;6.958;2022-09-16T10:56:21;100676.44;;;16.69;69.70
4143;BME280;2085;51.052;6.958;2022-09-16T10:58:48;100671.41;;;16.88;69.63
4143;BME280;2085;51.052;6.958;2022-09-16T11:01:35;100663.78;;;16.94;69.20
4143;BME280;2085;51.052;6.958;2022-09-16T11:07:24;100668.47;;;16.69;68.55
4143;BME280;2085;51.052;6.958;2022-09-16T11:10:03;100667.00;;;16.65;69.01
4143;BME280;2085;51.052;6.958;2022-09-16T11:15:31;100676.69;;;16.66;69.14
4143;BME280;2085;51.052;6.958;2022-09-16T11:18:17;100672.78;;;16.59;68.57
4143;BME280;2085;51.052;6.958;2022-09-16T11:23:47;100677.03;;;16.48;68.57
4143;BME280;2085;51.052;6.958;2022-09-16T11:26:22;100673.59;;;16.35;68.31
4143;BME280;2085;51.052;6.958;2022-09-16T11:29:02;100673.75;;;16.10;68.59
4143;BME280;2085;51.052;6.958;2022-09-16T11:31:38;100675.09;;;15.92;68.53
4143;BME280;2085;51.052;6.958;2022-09-16T11:34:11;100683.19;;;15.78;69.00
4143;BME280;2085;51.052;6.958;2022-09-16T11:36:52;100679.91;;;15.74;69.08
4143;BME280;2085;51.052;6.958;2022-09-16T11:39:35;100680.19;;;15.82;69.70
4143;BME280;2085;51.052;6.958;2022-09-16T11:42:11;100676.31;;;15.99;69.50
4143;BME280;2085;51.052;6.958;2022-09-16T11:44:45;100665.63;;;16.35;69.73
4143;BME280;2085;51.052;6.958;2022-09-16T11:47:28;100669.66;;;16.76;69.93
4143;BME280;2085;51.052;6.958;2022-09-16T11:55:46;100662.97;;;17.05;68.82
4143;BME280;2085;51.052;6.958;2022-09-16T11:58:24;100671.91;;;16.93;68.81
4143;BME280;2085;51.052;6.958;2022-09-16T12:00:54;100671.97;;;16.80;68.79
4143;BME280;2085;51.052;6.958;2022-09-16T12:03:37;100674.03;;;16.66;68.78
4143;BME280;2085;51.052;6.958;2022-09-16T12:06:09;100676.31;;;16.46;68.76
4143;BME280;2085;51.052;6.958;2022-09-16T12:08:53;100687.38;;;16.29;68.73
4143;BME280;2085;51.052;6.958;2022-09-16T12:11:25;100714.63;;;16.07;68.64
4143;BME280;2085;51.052;6.958;2022-09-16T12:14:06;100725.91;;;15.62;67.90
4143;BME280;2085;51.052;6.958;2022-09-16T12:16:38;100724.34;;;14.82;68.50
4143;BME280;2085;51.052;6.958;2022-09-16T12:19:12;100740.50;;;14.11;69.60
4143;BME280;2085;51.052;6.958;2022-09-16T12:21:46;100736.31;;;13.66;70.29
4143;BME280;2085;51.052;6.958;2022-09-16T12:24:17;100747.16;;;13.33;70.91
4143;BME280;2085;51.052;6.958;2022-09-16T12:26:50;100744.97;;;13.12;71.14
4143;BME280;2085;51.052;6.958;2022-09-16T12:29:25;100746.53;;;13.00;71.56
4143;BME280;2085;51.052;6.958;2022-09-16T12:31:56;100756.00;;;12.88;71.35
4143;BME280;2085;51.052;6.958;2022-09-16T12:34:28;100748.47;;;12.82;71.15
4143;BME280;2085;51.052;6.958;2022-09-16T12:37:01;100740.31;;;12.71;71.44
4143;BME280;2085;51.052;6.958;2022-09-16T12:39:28;100748.41;;;12.68;71.80
4143;BME280;2085;51.052;6.958;2022-09-16T12:42:28;100741.25;;;12.70;72.01
4143;BME280;2085;51.052;6.958;2022-09-16T12:45:22;100735.25;;;12.82;71.96
4143;BME280;2085;51.052;6.958;2022-09-16T12:48:00;100734.53;;;12.94;71.69
4143;BME280;2085;51.052;6.958;2022-09-16T12:53:49;100740.19;;;13.32;71.91
4143;BME280;2085;51.052;6.958;2022-09-16T12:56:36;100746.03;;;13.52;72.04
4143;BME280;2085;51.052;6.958;2022-09-16T12:59:19;100746.91;;;13.66;71.80
4143;BME280;2085;51.052;6.958;2022-09-16T13:01:50;100741.69;;;13.79;71.98
4143;BME280;2085;51.052;6.958;2022-09-16T13:04:22;100750.47;;;13.94;71.96
4143;BME280;2085;51.052;6.958;2022-09-16T13:06:54;100745.94;;;13.96;72.05
4143;BME280;2085;51.052;6.958;2022-09-16T13:09:24;100749.31;;;13.98;71.93
4143;BME280;2085;51.052;6.958;2022-09-16T13:11:53;100743.81;;;14.01;72.15
4143;BME280;2085;51.052;6.958;2022-09-16T13:14:23;100744.88;;;13.98;72.08
4143;BME280;2085;51.052;6.958;2022-09-16T13:16:52;100740.44;;;13.99;72.26
4143;BME280;2085;51.052;6.958;2022-09-16T13:19:38;100735.06;;;14.00;72.28
4143;BME280;2085;51.052;6.958;2022-09-16T13:22:19;100744.03;;;13.98;72.47
4143;BME280;2085;51.052;6.958;2022-09-16T13:24:52;100743.81;;;14.01;72.63
4143;BME280;2085;51.052;6.958;2022-09-16T13:27:31;100729.81;;;14.13;72.76
4143;BME280;2085;51.052;6.958;2022-09-16T13:30:34;100730.38;;;14.18;72.68
4143;BME280;2085;51.052;6.958;2022-09-16T13:33:20;100733.19;;;14.15;72.62
4143;BME280;2085;51.052;6.958;2022-09-16T13:35:49;100729.06;;;14.11;73.06
4143;BME280;2085;51.052;6.958;2022-09-16T13:38:35;100734.34;;;14.11;73.11
4143;BME280;2085;51.052;6.958;2022-09-16T13:41:04;100736.06;;;14.12;73.26
4143;BME280;2085;51.052;6.958;2022-09-16T13:43:34;100734.91;;;14.16;73.26
4143;BME280;2085;51.052;6.958;2022-09-16T13:46:07;100743.97;;;14.26;73.40
4143;BME280;2085;51.052;6.958;2022-09-16T13:48:39;100741.41;;;14.39;73.01
4143;BME280;2085;51.052;6.958;2022-09-16T13:51:12;100750.44;;;14.49;73.23